Blencoe, Iowa
Current Conditions -  °F | °C
As of 6:54 PM on Monday 20 Oct 2014 (Local Time) from KTQE Reporting Station
Clear Clear  
Wind Chill: 61°   Ceiling: Unl
Heat Index: 61°   Visibility: 9mi
Dew Point: 40°   Wind: 7mph
Humidity: 46%   Direction: 40°NE
Pressure: 30.04"   Gusts: NA
Location:  41.93°N, 96.08°W
Report Text: KTQE 202354Z AUTO 04006KT 9SM CLR 16/04 A3004 RMK AO2 SLP169 T01610044 10239 20161 50001
Loading
Personal Weather Stations






























Interactive Weather Map
Tropical Storm Tracking
New forecast layout! Learn more

10-Day Weather Forecast

Advertisements
Track Severe Weather on mobile